Time;durP1;ratioP1;P1;durP2;ratioP2;P2;SDS_P1;SDS_P2;PMS_P1;PMS_P2;Temp;Humidity;BMP_temperature;BMP_pressure;BME280_temperature;BME280_humidity;BME280_pressure;Samples;Min_cycle;Max_cycle;Signal;HPM_P1;HPM_P2
2024/04/18 00:00:52;;;;;;;3.27;2.23;;;2.30;99.90;;;;;;2229536;26;20270;-69
2024/04/18 00:01:52;;;;;;;2.40;2.00;;;2.20;99.90;;;;;;2225429;26;20313;-69
2024/04/18 00:02:53;;;;;;;3.97;2.00;;;2.20;99.90;;;;;;2244508;26;20342;-70
2024/04/18 00:03:54;;;;;;;4.03;2.07;;;2.20;99.90;;;;;;2258796;26;20267;-70
2024/04/18 00:04:55;;;;;;;1.80;1.53;;;2.20;99.90;;;;;;2236783;26;20753;-69
2024/04/18 00:05:55;;;;;;;2.70;1.80;;;2.20;99.90;;;;;;2223212;26;20302;-70
2024/04/18 00:06:56;;;;;;;2.80;2.30;;;2.30;99.90;;;;;;2229008;26;20314;-70
2024/04/18 00:07:57;;;;;;;6.27;2.97;;;2.40;99.90;;;;;;2244083;26;20348;-69
2024/04/18 00:08:57;;;;;;;3.33;2.43;;;2.50;99.90;;;;;;2246055;26;20279;-70
2024/04/18 00:09:58;;;;;;;2.70;2.10;;;2.50;99.90;;;;;;2252132;26;20322;-70
2024/04/18 00:10:59;;;;;;;5.37;2.60;;;2.60;99.90;;;;;;2250368;26;20262;-69
2024/04/18 00:11:59;;;;;;;2.87;2.17;;;2.60;99.90;;;;;;2243712;26;20270;-69
2024/04/18 00:13:00;;;;;;;2.93;2.00;;;2.70;99.90;;;;;;2229998;26;20680;-69
2024/04/18 00:14:01;;;;;;;4.73;2.50;;;2.60;99.90;;;;;;2249906;26;21084;-69
2024/04/18 00:15:01;;;;;;;3.50;2.33;;;2.60;99.90;;;;;;2233033;26;20238;-69
2024/04/18 00:16:03;;;;;;;2.73;2.23;;;2.70;99.90;;;;;;2233277;26;20287;-69
2024/04/18 00:17:03;;;;;;;2.25;1.98;;;2.70;99.90;;;;;;2232474;26;20355;-69
2024/04/18 00:18:04;;;;;;;3.37;2.20;;;2.80;99.90;;;;;;2230110;26;20225;-69
2024/04/18 00:19:05;;;;;;;2.20;2.00;;;2.80;99.90;;;;;;2246906;26;20293;-69
2024/04/18 00:20:06;;;;;;;2.00;1.80;;;2.70;99.90;;;;;;2250863;26;20244;-69
2024/04/18 00:21:06;;;;;;;2.63;2.17;;;2.80;99.90;;;;;;2220801;26;20260;-69
2024/04/18 00:22:07;;;;;;;2.80;2.17;;;2.90;99.90;;;;;;2236633;26;20291;-69
2024/04/18 00:23:08;;;;;;;3.50;1.90;;;2.80;99.90;;;;;;2250647;26;20665;-70
2024/04/18 00:24:08;;;;;;;2.00;1.73;;;2.80;99.90;;;;;;2243526;26;20217;-69
2024/04/18 00:25:10;;;;;;;2.30;1.77;;;2.80;99.90;;;;;;2243358;26;20230;-69
2024/04/18 00:26:10;;;;;;;2.13;1.83;;;2.80;99.90;;;;;;2244469;26;20219;-69
2024/04/18 00:27:11;;;;;;;2.50;1.93;;;2.80;99.90;;;;;;2244484;26;20219;-69
2024/04/18 00:28:12;;;;;;;1.80;1.70;;;2.80;99.90;;;;;;2243167;26;20218;-69
2024/04/18 00:29:12;;;;;;;2.73;1.77;;;2.80;99.90;;;;;;2248378;26;20368;-69
2024/04/18 00:30:13;;;;;;;2.73;2.07;;;2.70;99.90;;;;;;2244297;26;20631;-69
2024/04/18 00:31:14;;;;;;;3.70;1.60;;;2.80;99.90;;;;;;2242908;26;20277;-69
2024/04/18 00:32:15;;;;;;;2.90;1.80;;;2.70;99.90;;;;;;2243457;26;20350;-69
2024/04/18 00:33:15;;;;;;;2.70;2.20;;;2.70;99.90;;;;;;2242895;26;20266;-69
2024/04/18 00:34:16;;;;;;;2.87;2.17;;;2.70;99.90;;;;;;2228818;26;20334;-69
2024/04/18 00:35:17;;;;;;;3.00;1.87;;;2.70;99.90;;;;;;2236018;26;20231;-69
2024/04/18 00:36:17;;;;;;;4.87;2.07;;;2.80;99.90;;;;;;2240313;26;20232;-69
2024/04/18 00:37:18;;;;;;;2.97;2.10;;;2.80;99.90;;;;;;2241462;26;20342;-69
2024/04/18 00:38:19;;;;;;;2.27;2.00;;;2.90;99.90;;;;;;2250611;26;20227;-70
2024/04/18 00:39:19;;;;;;;2.03;1.60;;;2.80;99.90;;;;;;2250683;26;20232;-70
2024/04/18 00:40:20;;;;;;;2.47;1.70;;;2.90;99.90;;;;;;2235504;26;20228;-69
2024/04/18 00:41:21;;;;;;;2.77;1.83;;;2.90;99.90;;;;;;2235220;26;20699;-69
2024/04/18 00:42:21;;;;;;;2.57;1.90;;;2.80;99.90;;;;;;2251021;26;20258;-69
2024/04/18 00:43:22;;;;;;;3.20;2.03;;;2.90;99.90;;;;;;2249974;26;20309;-69
2024/04/18 00:44:22;;;;;;;2.03;1.80;;;2.90;99.90;;;;;;2228807;26;20306;-69
2024/04/18 00:45:23;;;;;;;2.20;1.80;;;2.80;99.90;;;;;;2228809;26;20612;-69
2024/04/18 00:46:27;;;;;;;3.93;2.37;;;2.80;99.90;;;;;;2242824;26;20266;-69
2024/04/18 00:47:28;;;;;;;2.55;2.00;;;2.80;99.90;;;;;;2243812;26;20726;-69
2024/04/18 00:48:29;;;;;;;2.67;2.15;;;2.80;99.90;;;;;;2217325;26;20599;-69
2024/04/18 00:49:30;;;;;;;3.00;2.00;;;2.80;99.90;;;;;;2236561;26;20308;-70
2024/04/18 00:50:30;;;;;;;2.27;1.80;;;2.80;99.90;;;;;;2245920;26;20488;-70
2024/04/18 00:51:32;;;;;;;2.23;2.00;;;2.90;99.90;;;;;;2243547;26;20270;-70
2024/04/18 00:52:33;;;;;;;2.20;2.00;;;2.80;99.90;;;;;;2243605;26;20323;-70
2024/04/18 00:53:34;;;;;;;2.70;1.90;;;2.90;99.90;;;;;;2243917;26;20737;-69
2024/04/18 00:54:35;;;;;;;7.30;2.35;;;2.90;99.90;;;;;;2244871;26;20897;-70
2024/04/18 00:55:36;;;;;;;2.00;1.80;;;2.90;99.90;;;;;;2243037;26;20277;-69
2024/04/18 00:56:39;;;;;;;4.65;2.10;;;2.90;99.90;;;;;;2232831;26;20361;-69
2024/04/18 00:57:40;;;;;;;3.85;2.00;;;2.80;99.90;;;;;;2229588;26;20275;-69
2024/04/18 00:58:40;;;;;;;4.15;2.08;;;2.80;99.90;;;;;;2235618;26;20352;-69
2024/04/18 00:59:44;;;;;;;3.63;1.90;;;2.80;99.90;;;;;;2232459;26;20716;-70
2024/04/18 01:00:50;;;;;;;2.10;1.90;;;2.90;99.90;;;;;;2228765;26;20284;-69
2024/04/18 01:01:50;;;;;;;2.30;2.10;;;2.90;99.90;;;;;;2236492;26;20629;-69
2024/04/18 01:02:51;;;;;;;2.13;1.93;;;2.90;99.90;;;;;;2234804;26;20270;-70
2024/04/18 01:03:52;;;;;;;1.97;1.73;;;3.00;99.90;;;;;;2236167;26;20306;-69
2024/04/18 01:04:53;;;;;;;3.65;2.17;;;3.00;99.90;;;;;;2243418;26;20270;-69
2024/04/18 01:05:56;;;;;;;1.88;1.77;;;2.90;99.90;;;;;;2242765;26;20700;-70
2024/04/18 01:06:57;;;;;;;1.80;1.70;;;2.90;99.90;;;;;;2236511;26;20418;-70
2024/04/18 01:07:58;;;;;;;1.95;1.70;;;3.00;99.90;;;;;;2235010;26;20272;-70
2024/04/18 01:09:01;;;;;;;2.03;1.83;;;3.00;99.90;;;;;;2249124;26;20312;-69
2024/04/18 01:10:02;;;;;;;2.00;1.80;;;3.00;99.90;;;;;;2240989;26;20236;-69
2024/04/18 01:11:02;;;;;;;1.77;1.60;;;3.00;99.90;;;;;;2249148;26;20305;-69
2024/04/18 01:12:04;;;;;;;2.60;2.00;;;3.00;99.90;;;;;;2250850;26;20791;-69
2024/04/18 01:13:04;;;;;;;2.13;1.90;;;3.00;99.90;;;;;;2246429;26;20549;-69
2024/04/18 01:14:10;;;;;;;1.83;1.67;;;3.10;99.90;;;;;;2250652;26;20219;-69
2024/04/18 01:15:10;;;;;;;1.70;1.60;;;3.10;99.90;;;;;;2234255;26;20668;-69
2024/04/18 01:16:11;;;;;;;2.43;1.70;;;3.00;99.90;;;;;;2219546;26;20225;-69
2024/04/18 01:17:12;;;;;;;1.70;1.53;;;3.00;99.90;;;;;;2231642;26;20296;-69
2024/04/18 01:18:12;;;;;;;1.83;1.63;;;3.00;99.90;;;;;;2233508;26;20222;-69
2024/04/18 01:19:19;;;;;;;2.20;1.60;;;2.90;99.90;;;;;;2248817;26;20267;-69
2024/04/18 01:20:24;;;;;;;2.05;1.73;;;3.00;99.90;;;;;;2241266;26;20292;-69
2024/04/18 01:21:25;;;;;;;1.45;1.35;;;2.90;99.90;;;;;;2235109;26;20271;-69
2024/04/18 01:22:27;;;;;;;2.20;1.40;;;2.80;99.90;;;;;;2233710;26;20779;-69
2024/04/18 01:23:28;;;;;;;2.63;1.70;;;2.80;99.90;;;;;;2242877;26;20269;-69
2024/04/18 01:24:29;;;;;;;1.80;1.48;;;2.80;99.90;;;;;;2244145;26;20278;-70
2024/04/18 01:25:30;;;;;;;3.30;1.55;;;2.80;99.90;;;;;;2246774;26;20269;-69
2024/04/18 01:26:30;;;;;;;1.70;1.60;;;2.80;99.90;;;;;;2245502;26;20261;-69
2024/04/18 01:27:31;;;;;;;1.73;1.47;;;2.80;99.90;;;;;;2243463;26;20303;-69
2024/04/18 01:28:32;;;;;;;1.77;1.53;;;2.80;99.90;;;;;;2244017;26;20269;-69
2024/04/18 01:29:32;;;;;;;2.93;2.00;;;2.90;99.90;;;;;;2255911;26;20365;-69
2024/04/18 01:30:36;;;;;;;1.73;1.60;;;2.90;99.90;;;;;;2245220;26;20313;-69
2024/04/18 01:31:37;;;;;;;2.08;1.73;;;2.90;99.90;;;;;;2228572;26;20396;-69
2024/04/18 01:32:38;;;;;;;2.30;1.43;;;3.00;99.90;;;;;;2221924;26;20712;-69
2024/04/18 01:33:38;;;;;;;1.43;1.33;;;3.00;99.90;;;;;;2241367;26;20323;-70
2024/04/18 01:34:39;;;;;;;1.70;1.60;;;3.10;99.90;;;;;;2242923;26;20322;-69
2024/04/18 01:35:40;;;;;;;2.60;1.63;;;3.10;99.90;;;;;;2242987;26;20270;-69
2024/04/18 01:36:40;;;;;;;1.83;1.73;;;3.10;99.90;;;;;;2242281;26;20610;-70
2024/04/18 01:37:41;;;;;;;3.23;1.90;;;3.10;99.90;;;;;;2232494;26;20271;-69
2024/04/18 01:38:42;;;;;;;3.30;1.80;;;3.10;99.90;;;;;;2241383;26;20270;-69
2024/04/18 01:39:44;;;;;;;2.37;1.70;;;3.20;99.90;;;;;;2243009;26;20310;-70
2024/04/18 01:40:45;;;;;;;2.53;1.80;;;3.20;99.90;;;;;;2232751;26;20376;-69
2024/04/18 01:41:45;;;;;;;3.93;1.67;;;3.10;99.90;;;;;;2213194;26;20281;-69
2024/04/18 01:42:46;;;;;;;2.37;1.30;;;3.10;99.90;;;;;;2249456;26;20270;-70
2024/04/18 01:43:47;;;;;;;2.43;2.10;;;3.10;99.90;;;;;;2234082;26;20301;-69
2024/04/18 01:44:47;;;;;;;2.00;1.80;;;3.10;99.90;;;;;;2206081;26;20297;-69
2024/04/18 01:45:48;;;;;;;1.77;1.63;;;3.00;99.90;;;;;;2219348;26;20729;-69
2024/04/18 01:46:49;;;;;;;3.10;1.70;;;3.10;99.90;;;;;;2222277;26;21040;-69
2024/04/18 01:47:50;;;;;;;1.50;1.40;;;3.10;99.90;;;;;;2248134;26;20308;-69
2024/04/18 01:48:51;;;;;;;1.80;1.70;;;3.00;99.90;;;;;;2243088;26;20347;-69
2024/04/18 01:49:52;;;;;;;1.95;1.67;;;2.90;99.90;;;;;;2248786;26;20338;-70
2024/04/18 01:50:53;;;;;;;2.43;1.83;;;2.90;99.90;;;;;;2239785;26;20314;-69
2024/04/18 01:51:53;;;;;;;3.20;1.77;;;2.90;99.90;;;;;;2241757;26;20302;-69
2024/04/18 01:52:54;;;;;;;2.20;2.00;;;2.90;99.90;;;;;;2240977;26;20314;-69
2024/04/18 01:53:55;;;;;;;2.20;2.00;;;2.90;99.90;;;;;;2234131;26;20647;-69
2024/04/18 01:54:55;;;;;;;1.90;1.70;;;2.80;99.90;;;;;;2229695;26;20271;-69
2024/04/18 01:55:56;;;;;;;2.53;2.33;;;2.80;99.90;;;;;;2225587;26;20327;-70
2024/04/18 01:56:57;;;;;;;6.47;3.57;;;2.80;99.90;;;;;;2230903;26;20325;-69
2024/04/18 01:57:57;;;;;;;3.13;2.50;;;2.70;99.90;;;;;;2228203;26;20772;-69
2024/04/18 01:59:03;;;;;;;2.90;2.23;;;2.70;99.90;;;;;;2227876;26;20311;-70
2024/04/18 02:00:05;;;;;;;2.22;1.92;;;2.70;99.90;;;;;;2249236;26;20297;-69
2024/04/18 02:01:06;;;;;;;2.40;2.20;;;2.80;99.90;;;;;;2243713;26;20282;-69
2024/04/18 02:02:06;;;;;;;2.70;2.00;;;2.70;99.90;;;;;;2250231;26;20253;-69
2024/04/18 02:03:07;;;;;;;1.90;1.70;;;2.60;99.90;;;;;;2233704;26;20327;-70
2024/04/18 02:04:09;;;;;;;3.27;1.87;;;2.60;99.90;;;;;;2230105;26;20242;-70
2024/04/18 02:05:10;;;;;;;3.15;2.30;;;2.70;99.90;;;;;;2233395;26;20297;-69
2024/04/18 02:06:11;;;;;;;2.60;2.03;;;2.60;99.90;;;;;;2235828;26;20232;-69
2024/04/18 02:07:11;;;;;;;4.73;2.63;;;2.60;99.90;;;;;;2242809;26;20785;-69
2024/04/18 02:08:12;;;;;;;2.40;2.20;;;2.50;99.90;;;;;;2242617;26;20562;-70
2024/04/18 02:09:13;;;;;;;2.37;1.93;;;2.50;99.90;;;;;;2230018;26;20215;-69
2024/04/18 02:10:14;;;;;;;3.17;2.00;;;2.50;99.90;;;;;;2232709;26;20235;-69
2024/04/18 02:11:15;;;;;;;2.33;2.10;;;2.50;99.90;;;;;;2235243;26;20254;-69
2024/04/18 02:12:15;;;;;;;4.07;2.60;;;2.50;99.90;;;;;;2230388;26;20221;-70
2024/04/18 02:13:16;;;;;;;4.73;2.53;;;2.50;99.90;;;;;;2243747;26;20268;-69
2024/04/18 02:14:17;;;;;;;2.87;2.57;;;2.50;99.90;;;;;;2236084;26;20731;-69
2024/04/18 02:15:17;;;;;;;3.10;2.57;;;2.50;99.90;;;;;;2231904;26;20237;-69
2024/04/18 02:16:18;;;;;;;3.13;2.50;;;2.50;99.90;;;;;;2229272;26;20232;-70
2024/04/18 02:17:19;;;;;;;4.80;2.40;;;2.50;99.90;;;;;;2228301;26;20287;-69
2024/04/18 02:18:19;;;;;;;3.47;2.40;;;2.40;99.90;;;;;;2251212;26;20696;-69
2024/04/18 02:19:20;;;;;;;3.60;2.43;;;2.50;99.90;;;;;;2251121;26;20615;-69
2024/04/18 02:20:21;;;;;;;4.38;2.28;;;2.50;99.90;;;;;;2236616;26;20272;-70
2024/04/18 02:21:22;;;;;;;3.40;2.80;;;2.50;99.90;;;;;;2228101;26;20736;-70
2024/04/18 02:22:22;;;;;;;4.40;3.00;;;2.50;99.90;;;;;;2227474;26;20317;-70
2024/04/18 02:23:23;;;;;;;3.80;2.73;;;2.40;99.90;;;;;;2220703;26;20815;-69
2024/04/18 02:24:24;;;;;;;3.53;2.90;;;2.40;99.90;;;;;;2221159;26;20267;-69
2024/04/18 02:25:24;;;;;;;4.33;3.60;;;2.30;99.90;;;;;;2244248;26;20951;-70
2024/04/18 02:26:25;;;;;;;5.10;3.60;;;2.30;99.90;;;;;;2250457;26;20310;-70
2024/04/18 02:27:26;;;;;;;4.13;2.80;;;2.30;99.90;;;;;;2242989;26;20266;-69
2024/04/18 02:28:29;;;;;;;5.00;3.23;;;2.10;99.90;;;;;;2245209;26;20259;-69
2024/04/18 02:29:30;;;;;;;4.55;3.30;;;2.00;99.90;;;;;;2244077;26;20373;-69
2024/04/18 02:30:30;;;;;;;6.43;3.30;;;2.00;99.90;;;;;;2243180;26;20403;-70
2024/04/18 02:31:31;;;;;;;4.27;3.43;;;1.90;99.90;;;;;;2242830;26;20299;-70
2024/04/18 02:32:32;;;;;;;5.27;4.00;;;1.90;99.90;;;;;;2246964;26;20269;-69
2024/04/18 02:33:32;;;;;;;5.90;4.27;;;2.00;99.90;;;;;;2243285;26;20742;-69
2024/04/18 02:34:33;;;;;;;5.10;4.00;;;1.90;99.90;;;;;;2228884;26;20328;-69
2024/04/18 02:35:34;;;;;;;5.53;4.40;;;1.90;99.90;;;;;;2244688;26;20279;-69
2024/04/18 02:36:34;;;;;;;4.67;3.50;;;1.90;99.90;;;;;;2243585;26;20753;-69
2024/04/18 02:37:35;;;;;;;6.57;4.10;;;1.90;99.90;;;;;;2230820;26;20372;-69
2024/04/18 02:38:36;;;;;;;4.97;4.17;;;1.90;99.90;;;;;;2242056;26;20271;-69
2024/04/18 02:39:36;;;;;;;5.40;3.70;;;1.90;99.90;;;;;;2258738;26;20358;-70
2024/04/18 02:40:37;;;;;;;8.07;4.57;;;1.80;99.90;;;;;;2243781;26;20310;-70
2024/04/18 02:41:38;;;;;;;5.27;4.00;;;1.70;99.90;;;;;;2233915;26;20335;-70
2024/04/18 02:42:38;;;;;;;6.17;3.83;;;1.60;99.90;;;;;;2243758;26;20268;-70
2024/04/18 02:43:39;;;;;;;5.10;4.27;;;1.60;99.90;;;;;;2251893;26;20643;-69
2024/04/18 02:44:40;;;;;;;4.43;3.80;;;1.70;99.90;;;;;;2243070;26;20301;-69
2024/04/18 02:45:41;;;;;;;5.47;3.67;;;1.70;99.90;;;;;;2243111;26;20277;-70
2024/04/18 02:46:41;;;;;;;4.03;3.58;;;1.70;99.90;;;;;;2243202;26;20321;-69
2024/04/18 02:47:42;;;;;;;4.43;3.17;;;1.70;99.90;;;;;;2243260;26;20307;-69
2024/04/18 02:48:42;;;;;;;6.20;3.97;;;1.80;99.90;;;;;;2257860;26;20352;-69
2024/04/18 02:49:43;;;;;;;5.13;4.13;;;1.80;99.90;;;;;;2239600;26;20271;-70
2024/04/18 02:50:44;;;;;;;6.77;3.20;;;1.90;99.90;;;;;;2243837;26;21031;-70
2024/04/18 02:51:45;;;;;;;4.23;3.17;;;1.90;99.90;;;;;;2246757;26;20266;-69
2024/04/18 02:52:45;;;;;;;4.33;3.53;;;2.00;99.90;;;;;;2242937;26;20359;-69
2024/04/18 02:53:46;;;;;;;7.50;3.70;;;2.00;99.90;;;;;;2217568;26;20311;-70
2024/04/18 02:54:46;;;;;;;4.50;3.67;;;2.00;99.90;;;;;;2231593;26;20892;-70
2024/04/18 02:55:47;;;;;;;3.60;3.27;;;2.20;99.90;;;;;;2220872;26;20269;-70
2024/04/18 02:56:48;;;;;;;4.50;3.63;;;2.30;99.90;;;;;;2235402;26;20317;-70
2024/04/18 02:57:48;;;;;;;6.50;4.47;;;2.30;99.90;;;;;;2235025;26;20356;-70
2024/04/18 02:58:50;;;;;;;5.10;3.70;;;2.40;99.90;;;;;;2234707;26;20724;-70
2024/04/18 02:59:50;;;;;;;4.18;3.25;;;2.40;99.90;;;;;;2228365;26;20279;-70
2024/04/18 03:00:51;;;;;;;6.33;4.07;;;2.40;99.90;;;;;;2242035;26;20733;-70
2024/04/18 03:01:52;;;;;;;5.43;3.73;;;2.40;99.90;;;;;;2231452;26;20272;-70
2024/04/18 03:02:53;;;;;;;3.57;3.17;;;2.50;99.90;;;;;;2230707;26;20330;-70
2024/04/18 03:03:53;;;;;;;4.47;3.20;;;2.50;99.90;;;;;;2246497;26;20792;-70
2024/04/18 03:04:54;;;;;;;5.10;3.87;;;2.50;99.90;;;;;;2246681;26;20382;-70
2024/04/18 03:06:04;;;;;;;4.03;3.10;;;2.50;99.90;;;;;;2250607;26;20316;-70
2024/04/18 03:07:05;;;;;;;6.40;4.22;;;2.60;99.90;;;;;;2238953;26;20236;-69
2024/04/18 03:08:05;;;;;;;4.93;3.50;;;2.50;99.90;;;;;;2248755;26;20588;-69
2024/04/18 03:09:06;;;;;;;4.07;3.37;;;2.50;99.90;;;;;;2233258;26;20708;-69
2024/04/18 03:10:07;;;;;;;7.57;4.13;;;2.50;99.90;;;;;;2232877;26;20478;-69
2024/04/18 03:11:08;;;;;;;5.30;4.27;;;2.50;99.90;;;;;;2247751;26;20236;-69
2024/04/18 03:12:09;;;;;;;4.60;3.97;;;2.50;99.90;;;;;;2233244;26;20277;-69
2024/04/18 03:13:09;;;;;;;6.97;4.30;;;2.50;99.90;;;;;;2219174;26;20274;-69
2024/04/18 03:14:10;;;;;;;5.10;4.27;;;2.50;99.90;;;;;;2235494;26;20224;-69
2024/04/18 03:15:10;;;;;;;5.17;3.77;;;2.50;99.90;;;;;;2242293;26;20216;-69
2024/04/18 03:16:14;;;;;;;5.90;4.17;;;2.60;99.90;;;;;;2252133;26;20227;-69
2024/04/18 03:17:15;;;;;;;5.75;3.95;;;2.50;99.90;;;;;;2242020;26;20330;-69
2024/04/18 03:18:15;;;;;;;6.43;4.73;;;2.50;99.90;;;;;;2241620;26;20334;-69
2024/04/18 03:19:16;;;;;;;6.60;4.50;;;2.50;99.90;;;;;;2242636;26;20268;-69
2024/04/18 03:20:17;;;;;;;6.63;3.63;;;2.50;99.90;;;;;;2244284;26;20243;-69
2024/04/18 03:21:18;;;;;;;5.13;3.15;;;2.60;99.90;;;;;;2246376;26;20234;-69
2024/04/18 03:22:18;;;;;;;5.20;3.97;;;2.50;99.90;;;;;;2245799;26;20346;-69
2024/04/18 03:23:19;;;;;;;6.10;3.80;;;2.40;99.90;;;;;;2234722;26;20218;-69
2024/04/18 03:24:23;;;;;;;6.00;4.13;;;2.40;99.90;;;;;;2230727;26;20230;-69
2024/04/18 03:25:23;;;;;;;6.90;3.70;;;2.40;99.90;;;;;;2234055;26;20267;-69
2024/04/18 03:26:24;;;;;;;5.17;4.07;;;2.40;99.90;;;;;;2234038;26;20743;-69
2024/04/18 03:27:25;;;;;;;5.40;3.80;;;2.50;99.90;;;;;;2235698;26;20271;-69
2024/04/18 03:28:25;;;;;;;5.47;3.57;;;2.50;99.90;;;;;;2244172;26;20368;-69
2024/04/18 03:29:26;;;;;;;5.77;3.93;;;2.60;99.90;;;;;;2234724;26;20310;-69
2024/04/18 03:30:27;;;;;;;4.33;3.80;;;2.70;99.90;;;;;;2236849;26;20347;-69
2024/04/18 03:31:27;;;;;;;5.70;3.47;;;2.70;99.90;;;;;;2249372;26;20267;-69
2024/04/18 03:32:28;;;;;;;6.20;4.40;;;2.60;99.90;;;;;;2243664;26;20336;-69
2024/04/18 03:33:29;;;;;;;4.10;3.37;;;2.70;99.90;;;;;;2234989;26;20417;-69
2024/04/18 03:34:29;;;;;;;4.87;3.83;;;2.70;99.90;;;;;;2235773;26;20647;-69
2024/04/18 03:35:30;;;;;;;4.33;3.33;;;2.70;99.90;;;;;;2230290;26;20332;-69
2024/04/18 03:36:34;;;;;;;4.37;3.70;;;2.70;99.90;;;;;;2245448;26;20311;-69
2024/04/18 03:37:34;;;;;;;5.82;3.90;;;2.70;99.90;;;;;;2246768;26;20269;-70
2024/04/18 03:38:35;;;;;;;5.00;3.50;;;2.70;99.90;;;;;;2246229;26;20287;-70
2024/04/18 03:39:36;;;;;;;4.67;3.67;;;2.70;99.90;;;;;;2245883;26;20649;-70
2024/04/18 03:40:38;;;;;;;5.93;4.27;;;2.70;99.90;;;;;;2241910;26;20302;-70
2024/04/18 03:41:38;;;;;;;4.03;3.35;;;2.70;99.90;;;;;;2229007;26;20371;-70
2024/04/18 03:42:39;;;;;;;4.17;3.27;;;2.70;99.90;;;;;;2230140;26;20761;-70
2024/04/18 03:43:41;;;;;;;4.97;3.27;;;2.70;99.90;;;;;;2250752;26;20283;-70
2024/04/18 03:44:44;;;;;;;3.50;2.88;;;2.70;99.90;;;;;;2244344;26;20840;-70
2024/04/18 03:45:45;;;;;;;3.65;3.03;;;2.70;99.90;;;;;;2247394;26;20278;-70
2024/04/18 03:46:46;;;;;;;3.87;3.13;;;2.60;99.90;;;;;;2235055;26;20276;-69
2024/04/18 03:47:51;;;;;;;4.57;3.30;;;2.60;99.90;;;;;;2235827;26;20706;-70
2024/04/18 03:48:51;;;;;;;3.50;2.70;;;2.60;99.90;;;;;;2239849;26;20695;-70
2024/04/18 03:49:52;;;;;;;4.60;3.70;;;2.50;99.90;;;;;;2243278;26;20263;-70
2024/04/18 03:50:53;;;;;;;3.00;2.50;;;2.50;99.90;;;;;;2219421;26;20631;-70
2024/04/18 03:51:54;;;;;;;4.80;3.43;;;2.50;99.90;;;;;;2220887;26;20716;-69
2024/04/18 03:52:55;;;;;;;3.67;3.25;;;2.60;99.90;;;;;;2236963;26;20887;-70
2024/04/18 03:53:56;;;;;;;4.97;2.80;;;2.60;99.90;;;;;;2235624;26;20290;-69
2024/04/18 03:54:57;;;;;;;3.90;3.30;;;2.60;99.90;;;;;;2220139;26;20314;-70
2024/04/18 03:55:58;;;;;;;3.53;2.97;;;2.50;99.90;;;;;;2220796;26;20308;-70
2024/04/18 03:56:58;;;;;;;4.13;2.97;;;2.60;99.90;;;;;;2235525;26;20768;-70
2024/04/18 03:57:59;;;;;;;3.40;3.10;;;2.60;99.90;;;;;;2249690;26;20262;-70
2024/04/18 03:59:00;;;;;;;4.87;3.53;;;2.50;99.90;;;;;;2241349;26;20273;-70
2024/04/18 04:00:01;;;;;;;4.10;3.40;;;2.50;99.90;;;;;;2213731;26;20271;-69
2024/04/18 04:01:02;;;;;;;4.22;3.53;;;2.50;99.90;;;;;;2212535;26;20739;-69
2024/04/18 04:02:02;;;;;;;4.03;3.10;;;2.50;99.90;;;;;;2250328;26;20240;-70
2024/04/18 04:03:05;;;;;;;3.83;3.43;;;2.60;99.90;;;;;;2243129;26;20285;-70
2024/04/18 04:04:06;;;;;;;4.07;3.10;;;2.60;99.90;;;;;;2235247;26;20323;-70
2024/04/18 04:05:07;;;;;;;3.30;3.00;;;2.60;99.90;;;;;;2221849;26;20221;-70
2024/04/18 04:06:08;;;;;;;3.97;3.30;;;2.60;99.90;;;;;;2250306;26;20811;-70
2024/04/18 04:07:08;;;;;;;3.00;2.67;;;2.60;99.90;;;;;;2251240;26;20813;-70
2024/04/18 04:08:09;;;;;;;4.40;2.90;;;2.60;99.90;;;;;;2249840;26;20644;-70
2024/04/18 04:09:10;;;;;;;4.10;3.17;;;2.60;99.90;;;;;;2234411;26;20235;-69
2024/04/18 04:10:10;;;;;;;4.67;3.63;;;2.60;99.90;;;;;;2235639;26;20232;-70
2024/04/18 04:11:12;;;;;;;3.80;2.90;;;2.70;99.90;;;;;;2247237;26;20704;-70
2024/04/18 04:12:13;;;;;;;4.20;3.05;;;2.60;99.90;;;;;;2234875;26;20273;-70
2024/04/18 04:13:14;;;;;;;5.53;3.13;;;2.60;99.90;;;;;;2220608;26;20307;-70
2024/04/18 04:14:15;;;;;;;3.30;2.83;;;2.80;99.90;;;;;;2235877;26;20226;-69
2024/04/18 04:15:15;;;;;;;4.03;3.50;;;2.70;99.90;;;;;;2248997;26;20766;-70
2024/04/18 04:16:18;;;;;;;4.73;2.93;;;2.70;99.90;;;;;;2243196;26;20227;-69
2024/04/18 04:17:19;;;;;;;3.42;2.92;;;2.60;99.90;;;;;;2244282;26;20226;-70
2024/04/18 04:18:19;;;;;;;3.63;3.10;;;2.70;99.90;;;;;;2231242;26;20254;-70
2024/04/18 04:19:20;;;;;;;4.97;3.30;;;2.60;99.90;;;;;;2228549;26;20235;-70
2024/04/18 04:20:21;;;;;;;3.47;3.03;;;2.70;99.90;;;;;;2245858;26;20274;-70
2024/04/18 04:21:22;;;;;;;3.70;3.30;;;2.70;99.90;;;;;;2244275;26;22865;-69
2024/04/18 04:22:23;;;;;;;3.37;2.90;;;2.70;99.90;;;;;;2229949;26;20946;-69
2024/04/18 04:23:23;;;;;;;4.10;3.00;;;2.70;99.90;;;;;;2239905;26;20309;-70
2024/04/18 04:24:24;;;;;;;3.23;2.93;;;2.70;99.90;;;;;;2243632;26;20270;-69
2024/04/18 04:25:25;;;;;;;3.67;2.70;;;2.80;99.90;;;;;;2235260;26;20309;-69
2024/04/18 04:26:33;;;;;;;4.77;3.23;;;2.80;99.90;;;;;;2236702;26;20372;-69
2024/04/18 04:27:33;;;;;;;4.28;3.20;;;2.80;99.90;;;;;;2229528;26;20271;-70
2024/04/18 04:28:34;;;;;;;4.90;3.80;;;2.90;99.90;;;;;;2242092;26;20318;-69
2024/04/18 04:29:35;;;;;;;4.30;3.50;;;3.00;99.90;;;;;;2220125;26;20266;-69
2024/04/18 04:30:35;;;;;;;5.43;3.40;;;2.90;99.90;;;;;;2234568;26;20685;-69
2024/04/18 04:31:36;;;;;;;4.57;3.07;;;3.00;99.90;;;;;;2245416;26;20305;-69
2024/04/18 04:32:36;;;;;;;3.93;3.10;;;3.00;99.90;;;;;;2242504;26;20731;-69
2024/04/18 04:33:37;;;;;;;4.40;3.33;;;3.00;99.90;;;;;;2250013;26;20279;-69
2024/04/18 04:34:38;;;;;;;4.50;3.40;;;2.90;99.90;;;;;;2254573;26;20267;-70
2024/04/18 04:35:38;;;;;;;5.03;2.93;;;2.90;99.90;;;;;;2243618;26;20268;-69
2024/04/18 04:36:39;;;;;;;4.23;3.70;;;2.80;99.90;;;;;;2247776;26;20726;-69
2024/04/18 04:37:40;;;;;;;4.67;2.93;;;2.70;99.90;;;;;;2228628;26;20268;-69
2024/04/18 04:38:40;;;;;;;5.10;3.50;;;2.70;99.90;;;;;;2241717;26;20737;-69
2024/04/18 04:39:41;;;;;;;5.27;3.10;;;2.60;99.90;;;;;;2257278;26;20263;-69
2024/04/18 04:40:42;;;;;;;3.07;2.77;;;2.60;99.90;;;;;;2243420;26;20266;-69
2024/04/18 04:41:43;;;;;;;3.40;2.80;;;2.60;99.90;;;;;;2233212;26;20673;-70
2024/04/18 04:42:43;;;;;;;5.10;3.30;;;2.60;99.90;;;;;;2249908;26;20306;-69
2024/04/18 04:43:44;;;;;;;3.70;2.97;;;2.70;99.90;;;;;;2249417;26;20811;-69
2024/04/18 04:44:45;;;;;;;5.47;3.73;;;2.70;99.90;;;;;;2245180;26;20271;-69
2024/04/18 04:45:45;;;;;;;4.50;2.80;;;2.70;99.90;;;;;;2242443;26;20343;-70
2024/04/18 04:46:46;;;;;;;3.03;2.73;;;2.70;99.90;;;;;;2242696;26;20268;-69
2024/04/18 04:47:49;;;;;;;4.17;3.43;;;2.70;99.90;;;;;;2258254;26;20363;-69
2024/04/18 04:48:50;;;;;;;6.03;4.22;;;2.60;99.90;;;;;;2253587;26;20313;-69
2024/04/18 04:49:51;;;;;;;3.53;3.23;;;2.60;99.90;;;;;;2243036;26;20271;-68
2024/04/18 04:51:00;;;;;;;4.80;3.78;;;2.60;99.90;;;;;;2223052;26;20324;-68
2024/04/18 04:52:02;;;;;;;3.70;3.40;;;2.60;99.90;;;;;;2242559;26;20270;-68
2024/04/18 04:53:03;;;;;;;4.13;3.35;;;2.70;99.90;;;;;;2223810;26;20299;-68
2024/04/18 04:54:05;;;;;;;3.57;2.93;;;2.70;99.90;;;;;;2219361;26;20317;-67
2024/04/18 04:55:06;;;;;;;4.57;3.28;;;2.70;99.90;;;;;;2221150;26;20266;-68
2024/04/18 04:56:08;;;;;;;6.70;3.60;;;2.70;99.90;;;;;;2233766;26;20727;-67
2024/04/18 04:57:13;;;;;;;4.55;3.17;;;2.70;99.90;;;;;;2235648;26;20235;-67
2024/04/18 04:58:14;;;;;;;3.65;3.00;;;2.80;99.90;;;;;;2228664;26;20227;-68
2024/04/18 04:59:15;;;;;;;3.53;3.13;;;2.80;99.90;;;;;;2249531;26;20840;-67
2024/04/18 05:00:15;;;;;;;3.70;3.00;;;2.80;99.90;;;;;;2247865;26;20284;-68
2024/04/18 05:01:16;;;;;;;4.67;3.33;;;2.80;99.90;;;;;;2228621;26;20257;-67
2024/04/18 05:02:17;;;;;;;4.03;2.80;;;2.80;99.90;;;;;;2249351;26;20218;-67
2024/04/18 05:03:17;;;;;;;4.33;3.10;;;2.90;99.90;;;;;;2247650;26;20273;-68
2024/04/18 05:04:18;;;;;;;4.93;3.43;;;2.90;99.90;;;;;;2240670;26;20227;-67
2024/04/18 05:05:19;;;;;;;4.63;2.80;;;3.00;99.90;;;;;;2228185;26;20227;-68
2024/04/18 05:06:20;;;;;;;3.90;3.50;;;2.90;99.90;;;;;;2244060;26;20223;-68
2024/04/18 05:07:21;;;;;;;4.50;3.30;;;2.90;99.90;;;;;;2241937;26;20271;-68
2024/04/18 05:08:22;;;;;;;5.10;3.77;;;3.00;99.90;;;;;;2228703;26;20619;-68
2024/04/18 05:09:22;;;;;;;4.67;3.90;;;3.00;99.90;;;;;;2240016;26;20262;-68
2024/04/18 05:10:23;;;;;;;6.43;3.70;;;2.90;99.90;;;;;;2243444;26;20274;-68
2024/04/18 05:11:24;;;;;;;4.33;3.60;;;2.90;99.90;;;;;;2249104;26;20655;-68
2024/04/18 05:12:24;;;;;;;6.80;4.30;;;2.90;99.90;;;;;;2229495;26;20273;-68
2024/04/18 05:13:25;;;;;;;6.40;4.37;;;2.90;99.90;;;;;;2241039;26;20261;-68
2024/04/18 05:14:26;;;;;;;5.80;4.50;;;2.80;99.90;;;;;;2242344;26;20726;-68
2024/04/18 05:15:27;;;;;;;6.03;4.65;;;2.70;99.90;;;;;;2213785;26;20308;-68
2024/04/18 05:16:28;;;;;;;6.30;3.77;;;2.70;99.90;;;;;;2233852;26;20265;-68
2024/04/18 05:17:28;;;;;;;3.83;3.27;;;2.70;99.90;;;;;;2235856;26;20363;-68
2024/04/18 05:18:29;;;;;;;4.67;3.07;;;2.60;99.90;;;;;;2232515;26;20271;-68
2024/04/18 05:19:29;;;;;;;4.37;3.97;;;2.60;99.90;;;;;;2227414;26;20850;-68
2024/04/18 05:20:30;;;;;;;5.63;4.53;;;2.50;99.90;;;;;;2228435;26;20305;-68
2024/04/18 05:21:31;;;;;;;5.30;3.30;;;2.50;99.90;;;;;;2232864;26;20744;-68
2024/04/18 05:22:32;;;;;;;4.63;3.27;;;2.50;99.90;;;;;;2227334;26;20271;-68